الصفحة الرئيسية
METAR-TAF:

METAR-TAF

مطار :

نوميا / La Tontouta, نيو كاليدونيا

دائرة عرض: 22-01S, خط طول: 166-13E, ارتفاع: 16 متر

مراقبة الطقس الحالي

تاريخ ووقت الإصدار 14ساعات و 11 دقيقة قبل الساعة 15:00UTC
ريح 2 عقدة من الجنوب/الجنوب الشرقي
درجة الحرارة 23°درجة مئوية
الرطوبة 94%
ضغط 1007 hPa
الرؤية: 8000 متر

METAR: NWWW 201500Z AUTO 15002KT 8000 NSC 23/22 Q1007 NOSIG

زمن: 16:11 (05:11 UTC)

توقعات

تاريخ ووقت الإصدار 18ساعات و 11 دقيقة قبل الساعة 11:00UTC
التوقعات صالحة من20 الساعة 12 UTC إلى 21 الساعة 12 UTC
ريح 2 عقدةمن اتجاهات متغيرة
الرؤية 10 كم أو أكثر
غيوم متفرقة على ارتفاع 4500 قدم
أصبح
من 20 الساعة 21 UTC إلى 20 الساعة 23 UTC
ريح 8 عقدة من الجنوب/الجنوب الغربي
مؤقت
من 20 الساعة 23 UTC إلى 21 الساعة 06 UTC
الرؤية: 4000 متر
غيوم متفرقة على ارتفاع 2000 قدم, مزنة ركامية.
عاصفة رعدية, مطر
أصبح
من 21 الساعة 06 UTC إلى 21 الساعة 08 UTC
ريح 2 عقدةمن اتجاهات متغيرة

TAF: NWWW 201100Z 2012/2112 VRB02KT 9999 SCT045 BECMG 2021/2023 21008KT TEMPO 2023/2106 4000 TSRA SCT020CB BECMG 2106/2108 VRB02KT

أرصاد الطقس والتوقعات من أكثر من 4000 مطار (تقارير الطقس للمطار METAR والتنبؤ بالطقس بالمطارTAF).

المحطات المتاحة هي النقط الصفراء والحمراء على الخريطة.

حرك المؤشر فوق النقطة لمعرفة اسم المحطة.

ثم انقر لمعرفة أرصاد وتوقعات الطقس.

لتغيير الخارطة: اضغط على الأزرار الخضراء مع رمز الصليب الأسود للتكبير. على الزر الأخضر مع شرطة للتصغير، أو على الأسهم الخضراء للخرائط المجاورة.


METAR-TAF: